createdAt,value
2023-03-04T00:00:32.685Z,15.48
2023-03-04T00:03:20.030Z,16.05
2023-03-04T00:05:47.507Z,17.40
2023-03-04T00:08:14.829Z,16.02
2023-03-04T00:10:42.374Z,17.20
2023-03-04T00:13:09.467Z,16.33
2023-03-04T00:15:37.140Z,16.50
2023-03-04T00:18:04.534Z,15.82
2023-03-04T00:20:32.053Z,16.95
2023-03-04T00:22:59.204Z,15.48
2023-03-04T00:25:26.601Z,15.05
2023-03-04T00:27:53.760Z,17.52
2023-03-04T00:30:21.205Z,17.60
2023-03-04T00:32:48.629Z,15.38
2023-03-04T00:35:16.644Z,17.20
2023-03-04T00:37:43.723Z,15.23
2023-03-04T00:40:11.783Z,19.15
2023-03-04T00:42:38.897Z,13.85
2023-03-04T00:45:07.027Z,15.27
2023-03-04T00:47:34.196Z,16.77
2023-03-04T00:50:01.631Z,15.20
2023-03-04T00:52:28.815Z,14.13
2023-03-04T00:54:56.819Z,16.73
2023-03-04T00:57:24.096Z,15.55
2023-03-04T00:59:51.620Z,14.88
2023-03-04T01:02:19.098Z,16.25
2023-03-04T01:04:46.870Z,14.07
2023-03-04T01:07:13.996Z,15.50
2023-03-04T01:09:41.407Z,15.35
2023-03-04T01:12:08.590Z,13.88
2023-03-04T01:14:36.296Z,14.50
2023-03-04T01:17:03.654Z,15.68
2023-03-04T01:19:31.137Z,14.65
2023-03-04T01:21:59.522Z,13.93
2023-03-04T01:24:26.948Z,15.32
2023-03-04T01:26:54.085Z,14.52
2023-03-04T01:29:23.237Z,15.80
2023-03-04T01:31:50.342Z,14.13
2023-03-04T01:34:18.194Z,14.15
2023-03-04T01:36:45.577Z,14.02
2023-03-04T01:39:12.988Z,14.60
2023-03-04T01:41:40.647Z,14.02
2023-03-04T01:44:11.005Z,14.07
2023-03-04T01:46:39.651Z,14.07
2023-03-04T01:49:09.861Z,14.98
2023-03-04T01:51:37.120Z,14.68
2023-03-04T01:54:04.557Z,15.30
2023-03-04T01:56:40.128Z,13.93
2023-03-04T01:59:15.150Z,15.35
2023-03-04T02:01:54.325Z,15.23
2023-03-04T02:04:26.207Z,16.33
2023-03-04T02:06:53.928Z,16.10
2023-03-04T02:09:22.584Z,14.55
2023-03-04T02:11:51.648Z,13.70
2023-03-04T02:14:19.789Z,14.77
2023-03-04T02:16:48.072Z,14.68
2023-03-04T02:19:53.442Z,15.93
2023-03-04T02:22:20.772Z,15.73
2023-03-04T02:24:53.303Z,16.02
2023-03-04T02:27:22.123Z,17.08
2023-03-04T02:29:50.223Z,14.25
2023-03-04T02:32:17.600Z,15.85
2023-03-04T02:34:48.494Z,15.13
2023-03-04T02:37:17.254Z,18.38
2023-03-04T02:39:47.491Z,17.55
2023-03-04T02:42:14.953Z,16.50
2023-03-04T02:44:47.769Z,15.73
2023-03-04T02:47:20.451Z,15.00
2023-03-04T02:49:49.748Z,17.98
2023-03-04T02:52:22.744Z,18.45
2023-03-04T02:54:50.302Z,17.48
2023-03-04T02:57:18.354Z,17.10
2023-03-04T02:59:50.137Z,19.67
2023-03-04T03:02:21.524Z,17.52
2023-03-04T03:04:48.988Z,17.85
2023-03-04T03:07:18.674Z,16.58
2023-03-04T03:09:46.370Z,17.83
2023-03-04T03:12:13.478Z,19.25
2023-03-04T03:14:41.269Z,17.13
2023-03-04T03:17:11.334Z,15.90
2023-03-04T03:19:38.772Z,17.67
2023-03-04T03:22:07.847Z,18.27
2023-03-04T03:24:35.756Z,17.35
2023-03-04T03:27:02.871Z,16.02
2023-03-04T03:29:31.009Z,17.92
2023-03-04T03:31:59.064Z,17.70
2023-03-04T03:34:26.778Z,16.83
2023-03-04T03:36:54.032Z,13.52
2023-03-04T03:39:22.289Z,15.13
2023-03-04T03:41:50.134Z,15.77
2023-03-04T03:44:17.552Z,16.38
2023-03-04T03:46:44.770Z,15.05
2023-03-04T03:49:12.355Z,16.70
2023-03-04T03:51:39.674Z,16.10
2023-03-04T03:54:07.123Z,17.42
2023-03-04T03:56:34.291Z,13.90
2023-03-04T03:59:01.751Z,16.35
2023-03-04T04:01:28.893Z,17.15
2023-03-04T04:03:56.304Z,17.25
2023-03-04T04:06:23.483Z,16.17
2023-03-04T04:08:51.029Z,16.80
2023-03-04T04:11:18.667Z,15.70
2023-03-04T04:13:46.195Z,15.07
2023-03-04T04:16:13.368Z,14.40
2023-03-04T04:18:40.872Z,16.05
2023-03-04T04:21:08.120Z,16.92
2023-03-04T04:23:35.649Z,15.55
2023-03-04T04:26:03.025Z,15.55
2023-03-04T04:28:30.552Z,16.10
2023-03-04T04:30:57.703Z,15.10
2023-03-04T04:33:25.208Z,15.73
2023-03-04T04:35:52.519Z,15.23
2023-03-04T04:38:19.931Z,14.00
2023-03-04T04:40:47.109Z,14.88
2023-03-04T04:43:14.530Z,14.52
2023-03-04T04:45:41.895Z,15.55
2023-03-04T04:48:09.401Z,13.32
2023-03-04T04:50:36.599Z,13.90
2023-03-04T04:53:04.037Z,13.40
2023-03-04T04:55:31.175Z,13.52
2023-03-04T04:57:59.051Z,13.98
2023-03-04T05:00:26.314Z,14.18
2023-03-04T05:02:53.715Z,12.18
2023-03-04T05:05:20.980Z,13.93
2023-03-04T05:07:48.365Z,13.45
2023-03-04T05:10:16.132Z,13.13
2023-03-04T05:12:44.865Z,12.07
2023-03-04T05:15:12.077Z,11.43
2023-03-04T05:17:39.503Z,12.82
2023-03-04T05:20:07.371Z,12.93
2023-03-04T05:22:35.024Z,11.95
2023-03-04T05:25:02.486Z,12.27
2023-03-04T05:27:29.928Z,13.93
2023-03-04T05:29:59.977Z,11.88
2023-03-04T05:32:28.303Z,12.90
2023-03-04T05:34:55.563Z,10.07
2023-03-04T05:37:22.940Z,12.02
2023-03-04T05:39:50.105Z,12.93
2023-03-04T05:42:17.488Z,13.77
2023-03-04T05:44:44.764Z,12.10
2023-03-04T05:47:12.130Z,11.75
2023-03-04T05:49:39.230Z,12.90
2023-03-04T05:52:06.586Z,13.50
2023-03-04T05:54:33.858Z,11.80
2023-03-04T05:57:02.498Z,12.80
2023-03-04T05:59:29.756Z,12.48
2023-03-04T06:01:57.129Z,11.70
2023-03-04T06:04:24.296Z,10.80
2023-03-04T06:06:51.683Z,13.05
2023-03-04T06:09:21.118Z,11.25
2023-03-04T06:11:48.594Z,11.85
2023-03-04T06:14:15.726Z,12.23
2023-03-04T06:16:43.229Z,11.32
2023-03-04T06:19:10.365Z,12.23
2023-03-04T06:21:37.809Z,9.85
2023-03-04T06:24:05.330Z,11.95
2023-03-04T06:26:32.752Z,13.25
2023-03-04T06:28:59.948Z,11.32
2023-03-04T06:31:27.450Z,13.65
2023-03-04T06:33:54.685Z,12.88
2023-03-04T06:36:22.141Z,13.05
2023-03-04T06:38:49.401Z,12.25
2023-03-04T06:41:17.110Z,11.60
2023-03-04T06:43:44.274Z,12.75
2023-03-04T06:46:11.660Z,12.55
2023-03-04T06:48:39.018Z,12.13
2023-03-04T06:51:08.136Z,11.52
2023-03-04T06:53:35.820Z,10.82
2023-03-04T06:56:03.609Z,11.68
2023-03-04T06:58:30.922Z,10.55
2023-03-04T07:00:58.392Z,11.50
2023-03-04T07:03:25.532Z,13.05
2023-03-04T07:05:52.888Z,11.18
2023-03-04T07:08:21.980Z,13.10
2023-03-04T07:10:49.767Z,12.52
2023-03-04T07:13:16.885Z,16.10
2023-03-04T07:15:44.405Z,12.88
2023-03-04T07:18:11.535Z,19.20
2023-03-04T07:20:39.075Z,16.98
2023-03-04T07:23:06.305Z,11.63
2023-03-04T07:25:33.789Z,16.35
2023-03-04T07:28:00.924Z,11.15
2023-03-04T07:30:28.612Z,12.55
2023-03-04T07:32:58.506Z,11.52
2023-03-04T07:35:25.917Z,11.07
2023-03-04T07:37:53.098Z,10.82
2023-03-04T07:40:22.017Z,12.82
2023-03-04T07:42:53.676Z,11.30
2023-03-04T07:45:22.248Z,12.23
2023-03-04T07:47:49.367Z,10.40
2023-03-04T07:50:18.104Z,10.02
2023-03-04T07:52:47.696Z,10.50
2023-03-04T07:55:16.815Z,11.88
2023-03-04T07:57:45.876Z,9.95
2023-03-04T08:00:15.650Z,12.00
2023-03-04T08:02:43.474Z,21.48
2023-03-04T08:05:10.704Z,12.88
2023-03-04T08:07:38.102Z,9.35
2023-03-04T08:10:06.002Z,13.70
2023-03-04T08:12:34.210Z,10.02
2023-03-04T08:15:01.362Z,11.13
2023-03-04T08:17:29.871Z,10.52
2023-03-04T08:19:57.056Z,9.40
2023-03-04T08:22:24.740Z,12.45
2023-03-04T08:24:51.870Z,11.05
2023-03-04T08:27:20.180Z,10.73
2023-03-04T08:29:47.426Z,9.48
2023-03-04T08:32:14.935Z,10.30
2023-03-04T08:34:42.247Z,9.70
2023-03-04T08:37:09.821Z,13.45
2023-03-04T08:39:37.807Z,10.30
2023-03-04T08:42:05.386Z,9.35
2023-03-04T08:44:32.459Z,9.77
2023-03-04T08:46:59.846Z,9.18
2023-03-04T08:49:26.939Z,9.82
2023-03-04T08:51:54.369Z,9.85
2023-03-04T08:54:21.499Z,9.90
2023-03-04T08:56:48.893Z,9.27
2023-03-04T08:59:16.037Z,10.15
2023-03-04T09:01:43.621Z,9.25
2023-03-04T09:04:10.915Z,10.52
2023-03-04T09:06:38.369Z,9.63
2023-03-04T09:09:05.589Z,9.27
2023-03-04T09:11:33.102Z,10.95
2023-03-04T09:14:00.214Z,9.82
2023-03-04T09:16:27.978Z,10.65
2023-03-04T09:18:55.268Z,10.05
2023-03-04T09:21:22.779Z,11.45
2023-03-04T09:23:51.542Z,10.82
2023-03-04T09:26:27.349Z,12.82
2023-03-04T09:28:57.359Z,9.73
2023-03-04T09:31:26.022Z,20.20
2023-03-04T09:33:54.384Z,41.80
2023-03-04T09:36:22.444Z,16.88
2023-03-04T09:38:49.759Z,40.92
2023-03-04T09:41:25.703Z,11.98
2023-03-04T09:43:54.614Z,14.15
2023-03-04T09:46:37.772Z,10.05
2023-03-04T09:49:07.260Z,6.45
2023-03-04T09:51:51.013Z,9.65
2023-03-04T09:54:33.061Z,5.45
2023-03-04T09:57:28.509Z,4.50
2023-03-04T10:00:20.074Z,3.90
2023-03-04T10:03:09.977Z,4.80
2023-03-04T10:05:44.418Z,6.78
2023-03-04T10:08:30.758Z,3.67
2023-03-04T10:11:00.570Z,4.57
2023-03-04T10:14:09.731Z,18.00
2023-03-04T10:16:53.218Z,3.17
2023-03-04T10:19:25.372Z,2.55
2023-03-04T10:21:53.073Z,2.65
2023-03-04T10:24:25.185Z,2.88
2023-03-04T10:27:01.912Z,3.00
2023-03-04T10:29:33.304Z,2.28
2023-03-04T10:32:00.611Z,2.80
2023-03-04T10:34:28.259Z,3.10
2023-03-04T10:37:07.628Z,2.65
2023-03-04T10:39:40.769Z,2.65
2023-03-04T10:42:26.697Z,2.33
2023-03-04T10:45:00.079Z,2.10
2023-03-04T10:47:29.922Z,2.60
2023-03-04T10:50:00.194Z,2.67
2023-03-04T10:52:35.157Z,2.42
2023-03-04T10:55:17.532Z,2.63
2023-03-04T10:57:49.819Z,2.95
2023-03-04T11:00:28.180Z,2.35
2023-03-04T11:03:24.296Z,3.17
2023-03-04T11:06:03.546Z,2.75
2023-03-04T11:08:30.742Z,2.13
2023-03-04T11:10:58.101Z,2.50
2023-03-04T11:13:26.733Z,2.20
2023-03-04T11:15:58.029Z,2.00
2023-03-04T11:18:34.640Z,2.00
2023-03-04T11:21:02.181Z,2.10
2023-03-04T11:23:47.149Z,2.38
2023-03-04T11:26:23.480Z,2.70
2023-03-04T11:29:14.290Z,2.38
2023-03-04T11:32:13.625Z,3.20
2023-03-04T11:34:47.288Z,2.42
2023-03-04T11:37:42.078Z,2.10
2023-03-04T11:40:16.431Z,2.60
2023-03-04T11:42:57.636Z,3.22
2023-03-04T11:45:34.051Z,2.80
2023-03-04T11:48:19.243Z,2.60
2023-03-04T11:51:22.966Z,2.38
2023-03-04T11:54:09.328Z,2.65
2023-03-04T11:56:43.465Z,2.22
2023-03-04T11:59:37.952Z,2.00
2023-03-04T12:02:25.247Z,2.05
2023-03-04T12:05:24.361Z,2.85
2023-03-04T12:08:16.237Z,2.45
2023-03-04T12:10:46.546Z,2.80
2023-03-04T12:13:31.363Z,1.98
2023-03-04T12:16:04.617Z,2.40
2023-03-04T12:18:56.153Z,5.70
2023-03-04T12:21:55.369Z,2.40
2023-03-04T12:24:31.585Z,2.40
2023-03-04T12:27:02.901Z,1.80
2023-03-04T12:29:38.911Z,2.15
2023-03-04T12:32:34.543Z,2.53
2023-03-04T12:35:25.548Z,2.13
2023-03-04T12:37:58.695Z,1.60
2023-03-04T12:40:47.665Z,3.78
2023-03-04T12:43:43.101Z,2.60
2023-03-04T12:47:08.769Z,2.05
2023-03-04T12:50:02.521Z,3.17
2023-03-04T12:52:49.514Z,2.50
2023-03-04T12:55:22.207Z,2.20
2023-03-04T12:57:50.366Z,1.80
2023-03-04T13:00:45.432Z,2.20
2023-03-04T13:03:30.094Z,1.40
2023-03-04T13:06:13.275Z,1.42
2023-03-04T13:08:59.624Z,2.85
2023-03-04T13:11:27.085Z,1.55
2023-03-04T13:14:17.323Z,1.95
2023-03-04T13:16:49.761Z,2.80
2023-03-04T13:19:46.850Z,3.63
2023-03-04T13:22:30.774Z,3.03
2023-03-04T13:24:59.706Z,7.75
2023-03-04T13:27:51.408Z,2.15
2023-03-04T13:30:34.554Z,3.38
2023-03-04T13:33:11.303Z,4.45
2023-03-04T13:35:50.454Z,6.47
2023-03-04T13:38:26.913Z,4.53
2023-03-04T13:41:31.171Z,1.80
2023-03-04T13:44:00.639Z,1.65
2023-03-04T13:46:27.764Z,2.45
2023-03-04T13:48:55.200Z,2.25
2023-03-04T13:51:46.438Z,2.83
2023-03-04T13:54:19.923Z,2.60
2023-03-04T13:56:50.250Z,2.00
2023-03-04T13:59:23.456Z,2.58
2023-03-04T14:01:55.675Z,2.95
2023-03-04T14:04:53.992Z,2.30
2023-03-04T14:12:22.869Z,1.73
2023-03-04T14:15:15.638Z,1.70
2023-03-04T14:17:48.113Z,2.05
2023-03-04T14:20:41.951Z,1.80
2023-03-04T14:23:26.046Z,2.17
2023-03-04T14:26:06.220Z,1.30
2023-03-04T14:28:33.527Z,2.28
2023-03-04T14:31:01.422Z,1.88
2023-03-04T14:33:30.816Z,1.90
2023-03-04T14:36:01.442Z,3.53
2023-03-04T14:38:32.178Z,1.83
2023-03-04T14:41:18.134Z,1.73
2023-03-04T14:44:02.332Z,1.55
2023-03-04T14:46:40.370Z,1.92
2023-03-04T14:49:12.627Z,2.47
2023-03-04T14:51:46.095Z,2.20
2023-03-04T14:54:37.558Z,1.75
2023-03-04T14:57:26.743Z,2.72
2023-03-04T14:59:54.685Z,2.25
2023-03-04T15:02:35.680Z,1.70
2023-03-04T15:05:16.569Z,1.50
2023-03-04T15:07:51.401Z,2.13
2023-03-04T15:10:26.783Z,1.90
2023-03-04T15:12:57.300Z,1.85
2023-03-04T15:15:33.125Z,1.77
2023-03-04T15:18:27.288Z,2.35
2023-03-04T15:21:03.141Z,2.30
2023-03-04T15:23:33.158Z,2.28
2023-03-04T15:26:02.951Z,2.95
2023-03-04T15:28:41.869Z,2.60
2023-03-04T15:31:18.089Z,2.95
2023-03-04T15:33:45.840Z,2.15
2023-03-04T15:36:22.439Z,2.70
2023-03-04T15:38:52.849Z,3.53
2023-03-04T15:41:25.866Z,2.10
2023-03-04T15:43:54.238Z,3.67
2023-03-04T15:46:21.976Z,3.25
2023-03-04T15:48:49.822Z,3.83
2023-03-04T15:51:22.209Z,3.53
2023-03-04T15:53:55.662Z,2.85
2023-03-04T15:56:26.399Z,3.50
2023-03-04T15:58:59.636Z,3.33
2023-03-04T16:01:27.486Z,2.40
2023-03-04T16:03:55.094Z,3.28
2023-03-04T16:06:24.955Z,1.80
2023-03-04T16:08:52.714Z,1.90
2023-03-04T16:11:25.714Z,2.10
2023-03-04T16:13:53.278Z,1.88
2023-03-04T16:16:20.904Z,1.58
2023-03-04T16:18:48.640Z,2.47
2023-03-04T16:21:20.988Z,1.80
2023-03-04T16:23:50.375Z,1.92
2023-03-04T16:26:27.767Z,2.10
2023-03-04T16:28:55.333Z,2.10
2023-03-04T16:31:23.058Z,3.17
2023-03-04T16:33:50.535Z,2.95
2023-03-04T16:36:26.966Z,3.05
2023-03-04T16:39:02.505Z,3.13
2023-03-04T16:41:35.859Z,3.50
2023-03-04T16:44:03.336Z,3.03
2023-03-04T16:46:30.570Z,3.00
2023-03-04T16:48:58.072Z,7.32
2023-03-04T16:51:25.254Z,3.97
2023-03-04T16:53:56.466Z,3.45
2023-03-04T16:56:24.149Z,4.10
2023-03-04T16:58:51.839Z,3.53
2023-03-04T17:01:24.013Z,4.57
2023-03-04T17:03:51.937Z,3.80
2023-03-04T17:06:20.884Z,4.55
2023-03-04T17:08:48.675Z,3.13
2023-03-04T17:11:21.450Z,2.45
2023-03-04T17:13:50.083Z,2.55
2023-03-04T17:16:17.442Z,4.40
2023-03-04T17:18:46.050Z,3.85
2023-03-04T17:21:19.952Z,3.58
2023-03-04T17:23:47.926Z,3.95
2023-03-04T17:26:16.713Z,4.43
2023-03-04T17:28:44.080Z,3.22
2023-03-04T17:31:13.094Z,2.75
2023-03-04T17:33:40.703Z,3.00
2023-03-04T17:36:11.273Z,3.55
2023-03-04T17:38:39.348Z,2.55
2023-03-04T17:41:09.351Z,4.07
2023-03-04T17:43:36.888Z,3.03
2023-03-04T17:46:10.500Z,3.10
2023-03-04T17:48:38.210Z,2.28
2023-03-04T17:51:05.546Z,3.70
2023-03-04T17:53:33.160Z,3.45
2023-03-04T17:56:02.499Z,4.45
2023-03-04T17:58:31.727Z,4.15
2023-03-04T18:01:24.854Z,4.38
2023-03-04T18:03:53.265Z,3.97
2023-03-04T18:06:22.805Z,4.30
2023-03-04T18:08:51.309Z,4.55
2023-03-04T18:11:20.851Z,3.38
2023-03-04T18:13:49.417Z,3.60
2023-03-04T18:16:23.127Z,3.17
2023-03-04T18:18:51.534Z,3.13
2023-03-04T18:21:19.873Z,3.25
2023-03-04T18:23:47.848Z,4.60
2023-03-04T18:26:15.418Z,6.10
2023-03-04T18:28:44.083Z,4.60
2023-03-04T18:31:11.349Z,7.50
2023-03-04T18:33:39.780Z,5.63
2023-03-04T18:36:08.916Z,3.95
2023-03-04T18:38:36.719Z,5.35
2023-03-04T18:41:11.128Z,5.93
2023-03-04T18:43:38.954Z,3.97
2023-03-04T18:46:40.179Z,5.30
2023-03-04T18:49:09.583Z,3.08
2023-03-04T18:51:36.810Z,3.25
2023-03-04T18:54:04.558Z,2.75
2023-03-04T18:56:38.618Z,2.78
2023-03-04T18:59:17.366Z,2.50
2023-03-04T19:01:45.410Z,2.42
2023-03-04T19:04:14.252Z,2.53
2023-03-04T19:06:41.703Z,2.22
2023-03-04T19:09:09.182Z,2.70
2023-03-04T19:11:36.495Z,2.20
2023-03-04T19:14:04.091Z,1.80
2023-03-04T19:16:31.387Z,2.60
2023-03-04T19:18:58.962Z,2.33
2023-03-04T19:21:26.190Z,2.00
2023-03-04T19:23:53.570Z,1.85
2023-03-04T19:26:20.710Z,2.20
2023-03-04T19:28:48.171Z,2.40
2023-03-04T19:31:15.293Z,3.08
2023-03-04T19:33:42.821Z,2.55
2023-03-04T19:36:10.450Z,8.50
2023-03-04T19:38:38.016Z,3.00
2023-03-04T19:41:13.458Z,3.65
2023-03-04T19:43:41.257Z,5.93
2023-03-04T19:46:09.867Z,5.10
2023-03-04T19:48:38.120Z,5.57
2023-03-04T19:51:13.437Z,3.75
2023-03-04T19:53:40.993Z,3.35
2023-03-04T19:56:08.365Z,3.42
2023-03-04T19:58:37.834Z,4.75
2023-03-04T20:01:05.245Z,4.22
2023-03-04T20:03:33.168Z,4.88
2023-03-04T20:06:08.188Z,3.22
2023-03-04T20:08:38.329Z,3.25
2023-03-04T20:11:12.860Z,4.22
2023-03-04T20:13:40.424Z,4.10
2023-03-04T20:16:09.365Z,3.30
2023-03-04T20:18:37.762Z,3.10
2023-03-04T20:21:05.636Z,3.45
2023-03-04T20:23:33.084Z,2.70
2023-03-04T20:26:00.454Z,4.07
2023-03-04T20:28:28.428Z,3.20
2023-03-04T20:31:32.958Z,2.35
2023-03-04T20:34:00.423Z,2.38
2023-03-04T20:36:29.747Z,3.55
2023-03-04T20:39:02.383Z,2.50
2023-03-04T20:41:31.030Z,2.97
2023-03-04T20:43:58.606Z,2.70
2023-03-04T20:46:45.308Z,4.05
2023-03-04T20:49:15.163Z,3.30
2023-03-04T20:51:43.219Z,4.13
2023-03-04T20:54:10.821Z,2.63
2023-03-04T20:56:38.651Z,2.42
2023-03-04T20:59:08.823Z,2.20
2023-03-04T21:01:38.796Z,2.50
2023-03-04T21:04:06.784Z,2.20
2023-03-04T21:06:34.456Z,3.85
2023-03-04T21:09:05.110Z,2.50
2023-03-04T21:11:39.913Z,3.22
2023-03-04T21:14:12.150Z,3.25
2023-03-04T21:16:39.531Z,1.77
2023-03-04T21:19:07.822Z,3.40
2023-03-04T21:21:34.982Z,3.03
2023-03-04T21:24:02.433Z,2.78
2023-03-04T21:26:29.598Z,3.53
2023-03-04T21:28:57.160Z,2.97
2023-03-04T21:31:28.442Z,3.03
2023-03-04T21:33:58.691Z,2.50
2023-03-04T21:36:26.020Z,2.65
2023-03-04T21:38:53.791Z,2.33
2023-03-04T21:41:23.664Z,2.03
2023-03-04T21:43:51.866Z,3.15
2023-03-04T21:46:19.349Z,2.72
2023-03-04T21:48:48.387Z,3.25
2023-03-04T21:51:17.008Z,3.45
2023-03-04T21:53:44.471Z,2.45
2023-03-04T21:56:12.897Z,2.90
2023-03-04T21:58:42.331Z,3.28
2023-03-04T22:01:18.566Z,6.00
2023-03-04T22:03:49.848Z,3.45
2023-03-04T22:06:21.798Z,2.35
2023-03-04T22:08:50.510Z,2.70
2023-03-04T22:11:17.769Z,4.55
2023-03-04T22:13:45.381Z,3.22
2023-03-04T22:16:12.563Z,3.20
2023-03-04T22:18:41.222Z,3.05
2023-03-04T22:21:11.849Z,3.40
2023-03-04T22:23:39.840Z,5.15
2023-03-04T22:26:33.515Z,3.30
2023-03-04T22:29:02.249Z,3.58
2023-03-04T22:31:32.382Z,3.03
2023-03-04T22:34:01.962Z,5.45
2023-03-04T22:36:30.781Z,3.42
2023-03-04T22:38:58.274Z,2.90
2023-03-04T22:41:25.588Z,3.03
2023-03-04T22:43:53.080Z,3.92
2023-03-04T22:46:24.748Z,3.40
2023-03-04T22:48:53.870Z,11.32
2023-03-04T22:51:21.955Z,3.90
2023-03-04T22:53:50.549Z,3.05
2023-03-04T22:56:18.592Z,9.65
2023-03-04T22:58:47.749Z,5.90
2023-03-04T23:01:16.800Z,2.85
2023-03-04T23:03:46.537Z,3.78
2023-03-04T23:06:19.508Z,3.47
2023-03-04T23:08:48.888Z,3.88
2023-03-04T23:11:21.180Z,3.15
2023-03-04T23:13:50.009Z,3.47
2023-03-04T23:16:17.683Z,4.25
2023-03-04T23:18:49.010Z,3.95
2023-03-04T23:21:19.694Z,4.20
2023-03-04T23:23:47.568Z,3.30
2023-03-04T23:26:23.027Z,4.45
2023-03-04T23:28:51.345Z,5.20
2023-03-04T23:31:19.265Z,3.47
2023-03-04T23:33:48.174Z,4.88
2023-03-04T23:36:18.370Z,4.22
2023-03-04T23:38:48.349Z,3.65
2023-03-04T23:41:24.384Z,4.60
2023-03-04T23:43:56.108Z,3.50
2023-03-04T23:46:23.923Z,4.03
2023-03-04T23:48:52.420Z,4.30
2023-03-04T23:51:21.997Z,3.60
2023-03-04T23:53:49.523Z,4.63
2023-03-04T23:56:19.260Z,3.97
2023-03-04T23:58:47.329Z,9.10
